sensor_id;sensor_type;location;lat;lon;timestamp;pressure;altitude;pressure_sealevel;temperature;humidity
3250;BME280;1637;42.020;23.992;2022-12-18T00:02:15;93338.81;;;9.95;100.00
3250;BME280;1637;42.020;23.992;2022-12-18T00:04:42;93330.38;;;10.00;100.00
3250;BME280;1637;42.020;23.992;2022-12-18T00:07:09;93339.94;;;9.94;100.00
3250;BME280;1637;42.020;23.992;2022-12-18T00:09:37;93344.91;;;9.96;100.00
3250;BME280;1637;42.020;23.992;2022-12-18T00:12:04;93344.16;;;9.71;100.00
3250;BME280;1637;42.020;23.992;2022-12-18T00:14:31;93356.00;;;9.91;100.00
3250;BME280;1637;42.020;23.992;2022-12-18T00:16:58;93349.13;;;9.76;100.00
3250;BME280;1637;42.020;23.992;2022-12-18T00:19:26;93358.66;;;9.70;100.00
3250;BME280;1637;42.020;23.992;2022-12-18T00:21:53;93359.03;;;9.64;100.00
3250;BME280;1637;42.020;23.992;2022-12-18T00:24:20;93352.91;;;9.60;100.00
3250;BME280;1637;42.020;23.992;2022-12-18T00:26:48;93354.81;;;9.53;100.00
3250;BME280;1637;42.020;23.992;2022-12-18T00:29:15;93359.78;;;9.47;100.00
3250;BME280;1637;42.020;23.992;2022-12-18T00:31:42;93360.53;;;9.44;100.00
3250;BME280;1637;42.020;23.992;2022-12-18T00:34:10;93353.63;;;9.25;100.00
3250;BME280;1637;42.020;23.992;2022-12-18T00:36:38;93357.41;;;9.10;100.00
3250;BME280;1637;42.020;23.992;2022-12-18T00:39:05;93365.78;;;9.09;100.00
3250;BME280;1637;42.020;23.992;2022-12-18T00:41:32;93357.78;;;9.12;100.00
3250;BME280;1637;42.020;23.992;2022-12-18T00:44:18;93373.84;;;9.23;100.00
3250;BME280;1637;42.020;23.992;2022-12-18T00:46:47;93375.00;;;9.25;100.00
3250;BME280;1637;42.020;23.992;2022-12-18T00:49:15;93379.59;;;9.39;100.00
3250;BME280;1637;42.020;23.992;2022-12-18T00:51:42;93384.50;;;9.12;100.00
3250;BME280;1637;42.020;23.992;2022-12-18T00:54:09;93374.56;;;9.16;100.00
3250;BME280;1637;42.020;23.992;2022-12-18T00:56:37;93371.59;;;9.43;100.00
3250;BME280;1637;42.020;23.992;2022-12-18T00:59:04;93370.84;;;9.42;100.00
3250;BME280;1637;42.020;23.992;2022-12-18T01:01:32;93378.88;;;9.53;100.00
3250;BME280;1637;42.020;23.992;2022-12-18T01:04:00;93369.31;;;9.48;100.00
3250;BME280;1637;42.020;23.992;2022-12-18T01:06:27;93373.91;;;9.51;100.00
3250;BME280;1637;42.020;23.992;2022-12-18T01:08:54;93376.59;;;9.48;100.00
3250;BME280;1637;42.020;23.992;2022-12-18T01:11:21;93380.31;;;9.22;100.00
3250;BME280;1637;42.020;23.992;2022-12-18T01:13:48;93371.47;;;9.00;100.00
3250;BME280;1637;42.020;23.992;2022-12-18T01:16:16;93370.38;;;9.15;100.00
3250;BME280;1637;42.020;23.992;2022-12-18T01:18:45;93382.66;;;9.38;100.00
3250;BME280;1637;42.020;23.992;2022-12-18T01:21:15;93380.38;;;9.33;100.00
3250;BME280;1637;42.020;23.992;2022-12-18T01:23:44;93381.13;;;9.29;100.00
3250;BME280;1637;42.020;23.992;2022-12-18T01:26:13;93385.34;;;9.34;100.00
3250;BME280;1637;42.020;23.992;2022-12-18T01:28:41;93383.75;;;9.22;100.00
3250;BME280;1637;42.020;23.992;2022-12-18T01:31:14;93382.97;;;9.18;100.00
3250;BME280;1637;42.020;23.992;2022-12-18T01:33:42;93380.25;;;9.01;100.00
3250;BME280;1637;42.020;23.992;2022-12-18T01:36:14;93377.63;;;9.08;100.00
3250;BME280;1637;42.020;23.992;2022-12-18T01:38:41;93392.16;;;9.14;100.00
3250;BME280;1637;42.020;23.992;2022-12-18T01:41:08;93394.41;;;9.08;100.00
3250;BME280;1637;42.020;23.992;2022-12-18T01:43:46;93414.91;;;8.83;100.00
3250;BME280;1637;42.020;23.992;2022-12-18T01:46:13;93402.75;;;9.00;100.00
3250;BME280;1637;42.020;23.992;2022-12-18T01:48:43;93407.31;;;8.88;100.00
3250;BME280;1637;42.020;23.992;2022-12-18T01:51:12;93445.75;;;8.73;100.00
3250;BME280;1637;42.020;23.992;2022-12-18T01:53:40;93352.56;;;8.54;100.00
3250;BME280;1637;42.020;23.992;2022-12-18T01:56:08;93407.69;;;8.94;100.00
3250;BME280;1637;42.020;23.992;2022-12-18T01:58:43;93404.28;;;8.97;100.00
3250;BME280;1637;42.020;23.992;2022-12-18T02:01:12;93410.38;;;8.90;100.00
3250;BME280;1637;42.020;23.992;2022-12-18T02:03:41;93408.81;;;8.86;100.00
3250;BME280;1637;42.020;23.992;2022-12-18T02:06:15;93403.34;;;8.61;100.00
3250;BME280;1637;42.020;23.992;2022-12-18T02:08:48;93406.41;;;8.63;100.00
3250;BME280;1637;42.020;23.992;2022-12-18T02:11:25;93412.06;;;8.54;100.00
3250;BME280;1637;42.020;23.992;2022-12-18T02:14:05;93417.78;;;8.56;100.00
3250;BME280;1637;42.020;23.992;2022-12-18T02:16:39;93414.25;;;8.38;100.00
3250;BME280;1637;42.020;23.992;2022-12-18T02:19:18;93404.41;;;8.49;100.00
3250;BME280;1637;42.020;23.992;2022-12-18T02:21:57;93404.72;;;8.37;100.00
3250;BME280;1637;42.020;23.992;2022-12-18T02:24:31;93411.66;;;8.52;100.00
3250;BME280;1637;42.020;23.992;2022-12-18T02:27:04;93376.41;;;8.25;100.00
3250;BME280;1637;42.020;23.992;2022-12-18T02:29:36;93421.19;;;8.53;100.00
3250;BME280;1637;42.020;23.992;2022-12-18T02:32:08;93416.66;;;8.57;100.00
3250;BME280;1637;42.020;23.992;2022-12-18T02:34:38;93420.25;;;8.28;100.00
3250;BME280;1637;42.020;23.992;2022-12-18T02:37:08;93420.81;;;8.04;100.00
3250;BME280;1637;42.020;23.992;2022-12-18T02:39:37;93398.41;;;7.27;100.00
3250;BME280;1637;42.020;23.992;2022-12-18T02:42:06;93427.38;;;7.32;100.00
3250;BME280;1637;42.020;23.992;2022-12-18T02:44:33;93421.06;;;7.14;100.00
3250;BME280;1637;42.020;23.992;2022-12-18T02:47:00;93415.75;;;7.14;100.00
3250;BME280;1637;42.020;23.992;2022-12-18T02:49:33;93425.47;;;7.70;100.00
3250;BME280;1637;42.020;23.992;2022-12-18T02:52:08;93427.56;;;7.87;100.00
3250;BME280;1637;42.020;23.992;2022-12-18T02:54:52;93433.69;;;7.94;100.00
3250;BME280;1637;42.020;23.992;2022-12-18T02:57:30;93427.69;;;8.05;100.00
3250;BME280;1637;42.020;23.992;2022-12-18T03:00:04;93425.47;;;8.10;100.00
3250;BME280;1637;42.020;23.992;2022-12-18T03:02:36;93336.72;;;7.25;100.00
3250;BME280;1637;42.020;23.992;2022-12-18T03:05:08;93431.94;;;7.69;100.00
3250;BME280;1637;42.020;23.992;2022-12-18T03:07:39;93438.44;;;7.34;100.00
3250;BME280;1637;42.020;23.992;2022-12-18T03:10:12;93428.44;;;6.94;100.00
3250;BME280;1637;42.020;23.992;2022-12-18T03:12:43;93436.38;;;6.90;100.00
3250;BME280;1637;42.020;23.992;2022-12-18T03:15:15;93439.28;;;7.42;100.00
3250;BME280;1637;42.020;23.992;2022-12-18T03:17:46;93438.75;;;7.63;100.00
3250;BME280;1637;42.020;23.992;2022-12-18T03:20:19;93442.66;;;7.39;100.00
3250;BME280;1637;42.020;23.992;2022-12-18T03:22:50;93450.00;;;7.45;100.00
3250;BME280;1637;42.020;23.992;2022-12-18T03:25:19;93449.22;;;7.45;100.00
3250;BME280;1637;42.020;23.992;2022-12-18T03:27:50;93446.97;;;7.87;100.00
3250;BME280;1637;42.020;23.992;2022-12-18T03:30:19;93455.47;;;8.00;100.00
3250;BME280;1637;42.020;23.992;2022-12-18T03:32:48;93452.88;;;7.67;100.00
3250;BME280;1637;42.020;23.992;2022-12-18T03:35:21;93464.63;;;7.62;100.00
3250;BME280;1637;42.020;23.992;2022-12-18T03:37:48;93439.66;;;7.40;100.00
3250;BME280;1637;42.020;23.992;2022-12-18T03:40:15;93459.53;;;7.50;100.00
3250;BME280;1637;42.020;23.992;2022-12-18T03:42:47;93458.75;;;7.46;100.00
3250;BME280;1637;42.020;23.992;2022-12-18T03:45:21;93463.28;;;7.42;100.00
3250;BME280;1637;42.020;23.992;2022-12-18T03:47:56;93478.59;;;7.52;100.00
3250;BME280;1637;42.020;23.992;2022-12-18T03:50:32;93477.72;;;7.41;100.00
3250;BME280;1637;42.020;23.992;2022-12-18T03:53:08;93470.19;;;7.46;100.00
3250;BME280;1637;42.020;23.992;2022-12-18T03:55:39;93473.75;;;7.28;100.00
3250;BME280;1637;42.020;23.992;2022-12-18T03:58:09;93479.13;;;7.31;100.00
3250;BME280;1637;42.020;23.992;2022-12-18T04:00:40;93474.03;;;7.52;100.00
3250;BME280;1637;42.020;23.992;2022-12-18T04:03:07;93481.19;;;7.45;100.00
3250;BME280;1637;42.020;23.992;2022-12-18T04:05:36;93479.16;;;7.35;100.00
3250;BME280;1637;42.020;23.992;2022-12-18T04:08:04;93468.00;;;7.22;100.00
3250;BME280;1637;42.020;23.992;2022-12-18T04:10:31;93485.16;;;7.28;100.00
3250;BME280;1637;42.020;23.992;2022-12-18T04:13:00;93480.66;;;7.32;100.00
3250;BME280;1637;42.020;23.992;2022-12-18T04:15:28;93489.63;;;7.17;100.00
3250;BME280;1637;42.020;23.992;2022-12-18T04:17:55;93490.69;;;7.42;100.00
3250;BME280;1637;42.020;23.992;2022-12-18T04:20:22;93482.69;;;7.12;100.00
3250;BME280;1637;42.020;23.992;2022-12-18T04:22:49;93491.66;;;6.97;100.00
3250;BME280;1637;42.020;23.992;2022-12-18T04:25:15;93502.34;;;7.01;100.00
3250;BME280;1637;42.020;23.992;2022-12-18T04:27:42;93505.84;;;6.78;100.00
3250;BME280;1637;42.020;23.992;2022-12-18T04:30:10;93505.53;;;7.13;100.00
3250;BME280;1637;42.020;23.992;2022-12-18T04:32:38;93500.66;;;6.89;100.00
3250;BME280;1637;42.020;23.992;2022-12-18T04:35:05;93509.16;;;6.98;100.00
3250;BME280;1637;42.020;23.992;2022-12-18T04:37:35;93513.59;;;7.47;100.00
3250;BME280;1637;42.020;23.992;2022-12-18T04:40:03;93507.03;;;7.41;100.00
3250;BME280;1637;42.020;23.992;2022-12-18T04:42:31;93514.19;;;7.07;100.00
3250;BME280;1637;42.020;23.992;2022-12-18T04:44:57;93512.41;;;7.14;100.00
3250;BME280;1637;42.020;23.992;2022-12-18T04:47:24;93519.44;;;7.26;100.00
3250;BME280;1637;42.020;23.992;2022-12-18T04:49:52;93518.78;;;7.06;100.00
3250;BME280;1637;42.020;23.992;2022-12-18T04:52:19;93522.06;;;6.96;100.00
3250;BME280;1637;42.020;23.992;2022-12-18T04:54:46;93522.41;;;6.95;100.00
3250;BME280;1637;42.020;23.992;2022-12-18T04:57:13;93523.78;;;7.11;100.00
3250;BME280;1637;42.020;23.992;2022-12-18T04:59:39;93519.88;;;7.02;100.00
3250;BME280;1637;42.020;23.992;2022-12-18T05:02:06;93519.59;;;7.10;100.00
3250;BME280;1637;42.020;23.992;2022-12-18T05:04:33;93535.31;;;7.19;100.00
3250;BME280;1637;42.020;23.992;2022-12-18T05:07:01;93496.16;;;6.40;100.00
3250;BME280;1637;42.020;23.992;2022-12-18T05:09:28;93533.44;;;6.93;100.00
3250;BME280;1637;42.020;23.992;2022-12-18T05:11:55;93535.06;;;7.01;100.00
3250;BME280;1637;42.020;23.992;2022-12-18T05:14:21;93543.19;;;7.12;100.00
3250;BME280;1637;42.020;23.992;2022-12-18T05:16:48;93518.91;;;6.61;100.00
3250;BME280;1637;42.020;23.992;2022-12-18T05:19:15;93544.53;;;6.99;100.00
3250;BME280;1637;42.020;23.992;2022-12-18T05:21:42;93553.00;;;7.34;100.00
3250;BME280;1637;42.020;23.992;2022-12-18T05:24:10;93558.03;;;8.87;100.00
3250;BME280;1637;42.020;23.992;2022-12-18T05:26:37;93559.03;;;8.32;100.00
3250;BME280;1637;42.020;23.992;2022-12-18T05:29:04;93566.63;;;7.89;100.00
3250;BME280;1637;42.020;23.992;2022-12-18T05:31:31;93568.31;;;7.71;100.00
3250;BME280;1637;42.020;23.992;2022-12-18T05:34:08;93565.38;;;7.49;100.00
3250;BME280;1637;42.020;23.992;2022-12-18T05:36:35;93536.31;;;6.81;100.00
3250;BME280;1637;42.020;23.992;2022-12-18T05:39:02;93574.72;;;7.06;100.00
3250;BME280;1637;42.020;23.992;2022-12-18T05:41:30;93573.06;;;6.98;100.00
3250;BME280;1637;42.020;23.992;2022-12-18T05:43:58;93557.44;;;6.97;100.00
3250;BME280;1637;42.020;23.992;2022-12-18T05:46:25;93572.91;;;7.14;100.00
3250;BME280;1637;42.020;23.992;2022-12-18T05:48:52;93583.50;;;7.10;100.00
3250;BME280;1637;42.020;23.992;2022-12-18T05:51:20;93584.75;;;6.90;100.00
3250;BME280;1637;42.020;23.992;2022-12-18T05:53:48;93581.00;;;6.95;100.00
3250;BME280;1637;42.020;23.992;2022-12-18T05:56:17;93586.84;;;7.04;100.00
3250;BME280;1637;42.020;23.992;2022-12-18T05:58:46;93575.88;;;6.82;100.00
3250;BME280;1637;42.020;23.992;2022-12-18T06:01:15;93591.44;;;7.07;100.00
3250;BME280;1637;42.020;23.992;2022-12-18T06:03:43;93598.78;;;7.13;100.00
3250;BME280;1637;42.020;23.992;2022-12-18T06:06:14;93605.59;;;7.11;100.00
3250;BME280;1637;42.020;23.992;2022-12-18T06:08:42;93606.59;;;7.29;100.00
3250;BME280;1637;42.020;23.992;2022-12-18T06:11:08;93611.63;;;7.34;100.00
3250;BME280;1637;42.020;23.992;2022-12-18T06:13:35;93591.00;;;7.01;100.00
3250;BME280;1637;42.020;23.992;2022-12-18T06:16:05;93616.88;;;7.27;100.00
3250;BME280;1637;42.020;23.992;2022-12-18T06:18:32;93598.44;;;7.15;100.00
3250;BME280;1637;42.020;23.992;2022-12-18T06:20:59;93584.69;;;7.39;100.00
3250;BME280;1637;42.020;23.992;2022-12-18T06:23:27;93625.25;;;7.55;100.00
3250;BME280;1637;42.020;23.992;2022-12-18T06:25:54;93631.22;;;7.19;100.00
3250;BME280;1637;42.020;23.992;2022-12-18T06:28:21;93642.38;;;7.54;100.00
3250;BME280;1637;42.020;23.992;2022-12-18T06:30:48;93643.09;;;7.51;100.00
3250;BME280;1637;42.020;23.992;2022-12-18T06:33:17;93649.03;;;7.68;100.00
3250;BME280;1637;42.020;23.992;2022-12-18T06:35:44;93644.91;;;7.44;100.00
3250;BME280;1637;42.020;23.992;2022-12-18T06:38:11;93653.03;;;7.28;100.00
3250;BME280;1637;42.020;23.992;2022-12-18T06:40:38;93653.44;;;7.30;100.00
3250;BME280;1637;42.020;23.992;2022-12-18T06:43:05;93665.63;;;7.31;100.00
3250;BME280;1637;42.020;23.992;2022-12-18T06:45:33;93659.53;;;7.31;100.00
3250;BME280;1637;42.020;23.992;2022-12-18T06:47:59;93664.00;;;7.49;100.00
3250;BME280;1637;42.020;23.992;2022-12-18T06:50:28;93661.31;;;7.76;100.00
3250;BME280;1637;42.020;23.992;2022-12-18T06:52:55;93659.72;;;7.71;100.00
3250;BME280;1637;42.020;23.992;2022-12-18T06:55:22;93657.81;;;7.68;100.00
3250;BME280;1637;42.020;23.992;2022-12-18T06:57:49;93665.03;;;7.68;100.00
3250;BME280;1637;42.020;23.992;2022-12-18T07:00:16;93668.50;;;7.72;100.00
3250;BME280;1637;42.020;23.992;2022-12-18T07:02:43;93671.41;;;7.89;100.00
3250;BME280;1637;42.020;23.992;2022-12-18T07:05:09;93671.03;;;7.91;100.00
3250;BME280;1637;42.020;23.992;2022-12-18T07:07:38;93675.06;;;7.78;100.00
3250;BME280;1637;42.020;23.992;2022-12-18T07:10:05;93673.75;;;7.65;100.00
3250;BME280;1637;42.020;23.992;2022-12-18T07:12:32;93643.41;;;7.46;100.00
3250;BME280;1637;42.020;23.992;2022-12-18T07:14:58;93669.84;;;7.58;100.00
3250;BME280;1637;42.020;23.992;2022-12-18T07:17:25;93677.53;;;7.64;100.00
3250;BME280;1637;42.020;23.992;2022-12-18T07:19:52;93685.28;;;7.72;100.00
3250;BME280;1637;42.020;23.992;2022-12-18T07:22:19;93693.50;;;7.60;100.00
3250;BME280;1637;42.020;23.992;2022-12-18T07:24:47;93655.09;;;7.38;100.00
3250;BME280;1637;42.020;23.992;2022-12-18T07:27:14;93690.84;;;7.90;100.00
3250;BME280;1637;42.020;23.992;2022-12-18T07:29:41;93687.56;;;7.74;100.00
3250;BME280;1637;42.020;23.992;2022-12-18T07:32:08;93698.19;;;7.70;100.00
3250;BME280;1637;42.020;23.992;2022-12-18T07:34:35;93697.06;;;7.71;100.00
3250;BME280;1637;42.020;23.992;2022-12-18T07:37:02;93703.72;;;7.84;100.00
3250;BME280;1637;42.020;23.992;2022-12-18T07:39:28;93696.75;;;7.76;100.00
3250;BME280;1637;42.020;23.992;2022-12-18T07:41:56;93696.16;;;7.90;100.00
3250;BME280;1637;42.020;23.992;2022-12-18T07:44:41;93704.44;;;8.11;100.00
3250;BME280;1637;42.020;23.992;2022-12-18T07:47:08;93701.91;;;8.22;100.00
3250;BME280;1637;42.020;23.992;2022-12-18T07:49:35;93712.34;;;8.31;100.00
3250;BME280;1637;42.020;23.992;2022-12-18T07:52:01;93707.72;;;8.27;100.00
3250;BME280;1637;42.020;23.992;2022-12-18T07:54:28;93690.94;;;8.27;100.00
3250;BME280;1637;42.020;23.992;2022-12-18T07:56:56;93715.88;;;8.38;100.00
3250;BME280;1637;42.020;23.992;2022-12-18T07:59:23;93719.72;;;8.41;100.00
3250;BME280;1637;42.020;23.992;2022-12-18T08:01:50;93724.56;;;8.65;100.00
3250;BME280;1637;42.020;23.992;2022-12-18T08:04:17;93724.41;;;8.51;100.00
3250;BME280;1637;42.020;23.992;2022-12-18T08:06:44;93728.50;;;8.78;100.00
3250;BME280;1637;42.020;23.992;2022-12-18T08:09:11;93733.38;;;8.69;100.00
3250;BME280;1637;42.020;23.992;2022-12-18T08:11:38;93728.38;;;8.64;100.00
3250;BME280;1637;42.020;23.992;2022-12-18T08:14:06;93732.53;;;8.61;100.00
3250;BME280;1637;42.020;23.992;2022-12-18T08:16:33;93736.13;;;8.76;100.00
3250;BME280;1637;42.020;23.992;2022-12-18T08:18:59;93739.59;;;8.80;100.00
3250;BME280;1637;42.020;23.992;2022-12-18T08:21:28;93736.84;;;8.70;100.00
3250;BME280;1637;42.020;23.992;2022-12-18T08:23:57;93736.44;;;8.38;100.00
3250;BME280;1637;42.020;23.992;2022-12-18T08:26:25;93736.78;;;8.66;100.00
3250;BME280;1637;42.020;23.992;2022-12-18T08:28:53;93739.50;;;8.73;100.00
3250;BME280;1637;42.020;23.992;2022-12-18T08:31:22;93737.09;;;8.61;100.00
3250;BME280;1637;42.020;23.992;2022-12-18T08:33:49;93735.72;;;8.41;100.00
3250;BME280;1637;42.020;23.992;2022-12-18T08:36:16;93733.50;;;8.46;100.00
3250;BME280;1637;42.020;23.992;2022-12-18T08:38:43;93757.84;;;8.71;100.00
3250;BME280;1637;42.020;23.992;2022-12-18T08:41:11;93755.59;;;8.77;100.00
3250;BME280;1637;42.020;23.992;2022-12-18T08:43:39;93707.34;;;8.29;100.00
3250;BME280;1637;42.020;23.992;2022-12-18T08:46:27;93743.47;;;8.53;100.00
3250;BME280;1637;42.020;23.992;2022-12-18T08:48:54;93741.44;;;8.73;100.00
3250;BME280;1637;42.020;23.992;2022-12-18T08:51:21;93739.09;;;8.68;100.00
3250;BME280;1637;42.020;23.992;2022-12-18T08:53:48;93739.16;;;8.75;100.00
3250;BME280;1637;42.020;23.992;2022-12-18T08:56:15;93740.63;;;8.69;100.00
3250;BME280;1637;42.020;23.992;2022-12-18T08:58:42;93740.22;;;8.67;100.00
3250;BME280;1637;42.020;23.992;2022-12-18T09:01:10;93739.16;;;9.12;100.00
3250;BME280;1637;42.020;23.992;2022-12-18T09:03:39;93735.25;;;9.02;100.00
3250;BME280;1637;42.020;23.992;2022-12-18T09:06:07;93723.88;;;8.72;100.00
3250;BME280;1637;42.020;23.992;2022-12-18T09:08:35;93737.84;;;8.58;100.00
3250;BME280;1637;42.020;23.992;2022-12-18T09:11:02;93739.50;;;8.70;100.00
3250;BME280;1637;42.020;23.992;2022-12-18T09:13:29;93743.03;;;8.81;100.00
3250;BME280;1637;42.020;23.992;2022-12-18T09:15:55;93739.97;;;8.79;100.00
3250;BME280;1637;42.020;23.992;2022-12-18T09:18:23;93738.50;;;8.85;100.00
3250;BME280;1637;42.020;23.992;2022-12-18T09:20:51;93740.50;;;8.58;100.00
3250;BME280;1637;42.020;23.992;2022-12-18T09:23:18;93743.72;;;8.74;100.00
3250;BME280;1637;42.020;23.992;2022-12-18T09:25:45;93742.59;;;9.12;100.00
3250;BME280;1637;42.020;23.992;2022-12-18T09:28:16;93738.53;;;9.29;100.00
3250;BME280;1637;42.020;23.992;2022-12-18T09:30:45;93718.72;;;8.89;100.00
3250;BME280;1637;42.020;23.992;2022-12-18T09:33:13;93708.72;;;8.83;100.00
3250;BME280;1637;42.020;23.992;2022-12-18T09:35:41;93717.22;;;8.92;100.00
3250;BME280;1637;42.020;23.992;2022-12-18T09:38:12;93742.09;;;9.00;100.00
3250;BME280;1637;42.020;23.992;2022-12-18T09:40:43;93737.16;;;9.02;100.00
3250;BME280;1637;42.020;23.992;2022-12-18T09:43:17;93745.53;;;9.00;100.00
3250;BME280;1637;42.020;23.992;2022-12-18T09:45:46;93737.19;;;9.05;100.00
3250;BME280;1637;42.020;23.992;2022-12-18T09:48:18;93735.00;;;9.14;100.00
3250;BME280;1637;42.020;23.992;2022-12-18T09:50:48;93728.13;;;9.17;100.00
3250;BME280;1637;42.020;23.992;2022-12-18T09:53:20;93732.44;;;9.28;100.00
3250;BME280;1637;42.020;23.992;2022-12-18T09:55:48;93730.66;;;9.47;100.00
3250;BME280;1637;42.020;23.992;2022-12-18T09:58:24;93728.50;;;9.19;100.00
3250;BME280;1637;42.020;23.992;2022-12-18T10:00:52;93731.66;;;9.28;100.00
3250;BME280;1637;42.020;23.992;2022-12-18T10:03:19;93733.56;;;9.27;100.00
3250;BME280;1637;42.020;23.992;2022-12-18T10:05:57;93705.03;;;9.42;100.00
3250;BME280;1637;42.020;23.992;2022-12-18T10:08:34;93721.56;;;9.58;100.00
3250;BME280;1637;42.020;23.992;2022-12-18T10:11:19;93718.81;;;9.44;100.00
3250;BME280;1637;42.020;23.992;2022-12-18T10:13:51;93723.84;;;9.53;100.00
3250;BME280;1637;42.020;23.992;2022-12-18T10:16:24;93729.16;;;9.49;100.00
3250;BME280;1637;42.020;23.992;2022-12-18T10:19:10;93709.25;;;9.43;100.00
3250;BME280;1637;42.020;23.992;2022-12-18T10:21:45;93726.22;;;9.65;100.00
3250;BME280;1637;42.020;23.992;2022-12-18T10:24:23;93729.06;;;9.35;100.00
3250;BME280;1637;42.020;23.992;2022-12-18T10:26:55;93723.13;;;9.56;100.00
3250;BME280;1637;42.020;23.992;2022-12-18T10:29:25;93727.28;;;9.57;100.00
3250;BME280;1637;42.020;23.992;2022-12-18T10:31:52;93725.34;;;9.50;100.00
3250;BME280;1637;42.020;23.992;2022-12-18T10:34:18;93726.16;;;9.54;100.00
3250;BME280;1637;42.020;23.992;2022-12-18T10:36:46;93737.09;;;9.90;100.00
3250;BME280;1637;42.020;23.992;2022-12-18T10:39:15;93735.06;;;9.73;100.00
3250;BME280;1637;42.020;23.992;2022-12-18T10:41:44;93720.56;;;9.74;100.00
3250;BME280;1637;42.020;23.992;2022-12-18T10:44:18;93727.91;;;9.87;100.00
3250;BME280;1637;42.020;23.992;2022-12-18T10:46:46;93737.03;;;9.83;100.00
3250;BME280;1637;42.020;23.992;2022-12-18T10:49:32;93727.13;;;9.87;100.00
3250;BME280;1637;42.020;23.992;2022-12-18T10:52:14;93714.06;;;9.78;100.00
3250;BME280;1637;42.020;23.992;2022-12-18T10:54:47;93700.69;;;9.78;100.00
3250;BME280;1637;42.020;23.992;2022-12-18T10:57:29;93721.88;;;10.05;100.00
3250;BME280;1637;42.020;23.992;2022-12-18T10:59:59;93708.84;;;9.96;100.00
3250;BME280;1637;42.020;23.992;2022-12-18T11:02:34;93723.47;;;10.13;100.00
3250;BME280;1637;42.020;23.992;2022-12-18T11:05:01;93720.31;;;10.00;100.00
3250;BME280;1637;42.020;23.992;2022-12-18T11:07:47;93721.44;;;9.92;100.00
3250;BME280;1637;42.020;23.992;2022-12-18T11:10:16;93717.66;;;10.04;100.00
3250;BME280;1637;42.020;23.992;2022-12-18T11:12:45;93682.84;;;9.93;100.00
3250;BME280;1637;42.020;23.992;2022-12-18T11:15:16;93748.44;;;10.31;100.00
3250;BME280;1637;42.020;23.992;2022-12-18T11:17:47;93726.66;;;10.40;100.00
3250;BME280;1637;42.020;23.992;2022-12-18T11:20:29;93730.13;;;10.37;100.00
3250;BME280;1637;42.020;23.992;2022-12-18T11:22:59;93730.91;;;10.44;100.00
3250;BME280;1637;42.020;23.992;2022-12-18T11:25:27;93727.50;;;10.51;100.00
3250;BME280;1637;42.020;23.992;2022-12-18T11:27:56;93722.03;;;10.26;100.00
3250;BME280;1637;42.020;23.992;2022-12-18T11:30:26;93723.25;;;10.39;100.00
3250;BME280;1637;42.020;23.992;2022-12-18T11:32:56;93722.59;;;10.71;100.00
3250;BME280;1637;42.020;23.992;2022-12-18T11:35:34;93712.28;;;10.76;100.00
3250;BME280;1637;42.020;23.992;2022-12-18T11:38:06;93721.88;;;10.95;100.00
3250;BME280;1637;42.020;23.992;2022-12-18T11:40:42;93716.13;;;10.89;100.00
3250;BME280;1637;42.020;23.992;2022-12-18T11:43:15;93711.13;;;10.88;100.00
3250;BME280;1637;42.020;23.992;2022-12-18T11:45:48;93719.59;;;11.11;100.00
3250;BME280;1637;42.020;23.992;2022-12-18T11:48:21;93680.47;;;10.67;100.00
3250;BME280;1637;42.020;23.992;2022-12-18T11:50:50;93719.59;;;10.93;100.00
3250;BME280;1637;42.020;23.992;2022-12-18T11:53:17;93724.13;;;10.82;100.00
3250;BME280;1637;42.020;23.992;2022-12-18T11:55:56;93684.31;;;10.77;100.00
3250;BME280;1637;42.020;23.992;2022-12-18T11:58:37;93684.69;;;10.72;100.00
3250;BME280;1637;42.020;23.992;2022-12-18T12:01:16;93715.72;;;10.80;100.00
3250;BME280;1637;42.020;23.992;2022-12-18T12:04:05;93715.72;;;10.87;100.00
3250;BME280;1637;42.020;23.992;2022-12-18T12:06:44;93723.00;;;10.83;100.00
3250;BME280;1637;42.020;23.992;2022-12-18T12:09:20;93715.69;;;10.73;100.00
3250;BME280;1637;42.020;23.992;2022-12-18T12:11:59;93716.09;;;10.79;100.00
3250;BME280;1637;42.020;23.992;2022-12-18T12:14:40;93707.31;;;10.85;100.00
3250;BME280;1637;42.020;23.992;2022-12-18T12:17:16;93713.44;;;10.86;100.00
3250;BME280;1637;42.020;23.992;2022-12-18T12:19:51;93709.22;;;10.88;100.00
3250;BME280;1637;42.020;23.992;2022-12-18T12:22:24;93708.47;;;10.91;100.00
3250;BME280;1637;42.020;23.992;2022-12-18T12:25:08;93705.00;;;10.84;100.00
3250;BME280;1637;42.020;23.992;2022-12-18T12:27:46;93706.91;;;10.87;100.00
3250;BME280;1637;42.020;23.992;2022-12-18T12:30:20;93711.91;;;10.92;100.00
3250;BME280;1637;42.020;23.992;2022-12-18T12:33:05;93718.78;;;10.79;100.00
3250;BME280;1637;42.020;23.992;2022-12-18T12:35:45;93718.44;;;11.09;100.00
3250;BME280;1637;42.020;23.992;2022-12-18T12:38:16;93712.31;;;11.05;100.00
3250;BME280;1637;42.020;23.992;2022-12-18T12:40:49;93715.38;;;11.07;100.00
3250;BME280;1637;42.020;23.992;2022-12-18T12:43:27;93719.16;;;10.77;100.00
3250;BME280;1637;42.020;23.992;2022-12-18T12:45:58;93696.09;;;10.48;100.00
3250;BME280;1637;42.020;23.992;2022-12-18T12:48:40;93683.63;;;10.00;100.00
3250;BME280;1637;42.020;23.992;2022-12-18T12:51:14;93718.84;;;10.10;100.00
3250;BME280;1637;42.020;23.992;2022-12-18T12:53:42;93731.47;;;10.09;100.00
3250;BME280;1637;42.020;23.992;2022-12-18T12:56:11;93733.81;;;10.18;100.00
3250;BME280;1637;42.020;23.992;2022-12-18T12:58:46;93739.94;;;10.18;100.00
3250;BME280;1637;42.020;23.992;2022-12-18T13:01:25;93725.72;;;10.07;100.00
3250;BME280;1637;42.020;23.992;2022-12-18T13:04:02;93740.28;;;10.10;100.00
3250;BME280;1637;42.020;23.992;2022-12-18T13:06:37;93741.72;;;10.00;100.00
3250;BME280;1637;42.020;23.992;2022-12-18T13:09:07;93741.34;;;9.94;100.00
3250;BME280;1637;42.020;23.992;2022-12-18T13:11:39;93754.56;;;9.73;100.00
3250;BME280;1637;42.020;23.992;2022-12-18T13:14:28;93752.31;;;10.44;100.00
3250;BME280;1637;42.020;23.992;2022-12-18T13:17:23;93764.94;;;10.37;99.63
3250;BME280;1637;42.020;23.992;2022-12-18T13:20:07;93749.63;;;10.37;99.59
3250;BME280;1637;42.020;23.992;2022-12-18T13:22:37;93762.19;;;10.29;97.86
3250;BME280;1637;42.020;23.992;2022-12-18T13:25:29;93764.78;;;10.15;97.75
3250;BME280;1637;42.020;23.992;2022-12-18T13:28:11;93768.94;;;10.09;98.38